sensor_id;sensor_type;location;lat;lon;timestamp;pressure;altitude;pressure_sealevel;temperature;humidity
9740;BME280;4909;42.680;26.324;2022-08-21T00:00:44;97955.91;;;26.76;60.98
9740;BME280;4909;42.680;26.324;2022-08-21T00:03:13;97953.63;;;26.65;61.35
9740;BME280;4909;42.680;26.324;2022-08-21T00:05:43;97948.78;;;26.75;60.59
9740;BME280;4909;42.680;26.324;2022-08-21T00:08:10;97951.03;;;26.71;59.55
9740;BME280;4909;42.680;26.324;2022-08-21T00:10:38;97944.78;;;26.48;60.55
9740;BME280;4909;42.680;26.324;2022-08-21T00:13:05;97945.41;;;26.35;61.00
9740;BME280;4909;42.680;26.324;2022-08-21T00:15:35;97944.91;;;26.55;60.46
9740;BME280;4909;42.680;26.324;2022-08-21T00:18:03;97943.59;;;26.65;60.13
9740;BME280;4909;42.680;26.324;2022-08-21T00:20:32;97942.63;;;26.58;60.59
9740;BME280;4909;42.680;26.324;2022-08-21T00:23:00;97938.72;;;26.61;61.15
9740;BME280;4909;42.680;26.324;2022-08-21T00:25:27;97937.47;;;26.63;61.52
9740;BME280;4909;42.680;26.324;2022-08-21T00:27:54;97935.31;;;26.59;61.14
9740;BME280;4909;42.680;26.324;2022-08-21T00:30:23;97935.53;;;26.57;61.57
9740;BME280;4909;42.680;26.324;2022-08-21T00:32:51;97937.66;;;26.47;62.20
9740;BME280;4909;42.680;26.324;2022-08-21T00:35:29;97934.38;;;26.37;62.38
9740;BME280;4909;42.680;26.324;2022-08-21T00:37:58;97918.09;;;26.06;62.95
9740;BME280;4909;42.680;26.324;2022-08-21T00:40:29;97929.59;;;25.71;64.36
9740;BME280;4909;42.680;26.324;2022-08-21T00:42:56;97905.91;;;25.57;65.04
9740;BME280;4909;42.680;26.324;2022-08-21T00:45:23;97920.00;;;25.83;65.32
9740;BME280;4909;42.680;26.324;2022-08-21T00:47:51;97907.00;;;25.93;65.00
9740;BME280;4909;42.680;26.324;2022-08-21T00:50:20;97908.16;;;25.99;65.17
9740;BME280;4909;42.680;26.324;2022-08-21T00:52:49;97906.72;;;25.88;65.15
9740;BME280;4909;42.680;26.324;2022-08-21T00:55:20;97903.75;;;25.98;65.02
9740;BME280;4909;42.680;26.324;2022-08-21T00:57:51;97898.78;;;26.01;65.09
9740;BME280;4909;42.680;26.324;2022-08-21T01:00:22;97884.88;;;26.19;63.93
9740;BME280;4909;42.680;26.324;2022-08-21T01:02:49;97887.38;;;26.20;64.48
9740;BME280;4909;42.680;26.324;2022-08-21T01:05:16;97883.50;;;26.23;64.24
9740;BME280;4909;42.680;26.324;2022-08-21T01:07:43;97881.53;;;26.31;63.64
9740;BME280;4909;42.680;26.324;2022-08-21T01:10:11;97882.72;;;26.29;63.88
9740;BME280;4909;42.680;26.324;2022-08-21T01:12:40;97883.09;;;26.26;63.90
9740;BME280;4909;42.680;26.324;2022-08-21T01:15:09;97875.66;;;26.20;63.92
9740;BME280;4909;42.680;26.324;2022-08-21T01:17:37;97887.47;;;26.12;63.95
9740;BME280;4909;42.680;26.324;2022-08-21T01:20:07;97851.78;;;25.92;64.32
9740;BME280;4909;42.680;26.324;2022-08-21T01:22:36;97877.44;;;26.13;65.31
9740;BME280;4909;42.680;26.324;2022-08-21T01:25:05;97868.84;;;26.01;65.40
9740;BME280;4909;42.680;26.324;2022-08-21T01:27:32;97861.38;;;26.03;65.23
9740;BME280;4909;42.680;26.324;2022-08-21T01:30:04;97856.97;;;26.02;65.40
9740;BME280;4909;42.680;26.324;2022-08-21T01:32:34;97863.44;;;26.16;64.73
9740;BME280;4909;42.680;26.324;2022-08-21T01:35:01;97850.63;;;26.24;64.70
9740;BME280;4909;42.680;26.324;2022-08-21T01:37:29;97850.63;;;26.24;64.58
9740;BME280;4909;42.680;26.324;2022-08-21T01:39:57;97855.72;;;26.27;64.68
9740;BME280;4909;42.680;26.324;2022-08-21T01:42:24;97853.09;;;26.34;64.65
9740;BME280;4909;42.680;26.324;2022-08-21T01:44:51;97855.97;;;26.18;64.93
9740;BME280;4909;42.680;26.324;2022-08-21T01:47:18;97859.59;;;26.10;65.32
9740;BME280;4909;42.680;26.324;2022-08-21T01:49:45;97861.38;;;25.66;67.01
9740;BME280;4909;42.680;26.324;2022-08-21T01:52:12;97854.31;;;25.26;68.26
9740;BME280;4909;42.680;26.324;2022-08-21T01:54:39;97850.69;;;25.33;68.83
9740;BME280;4909;42.680;26.324;2022-08-21T01:57:07;97851.69;;;25.63;68.32
9740;BME280;4909;42.680;26.324;2022-08-21T01:59:35;97851.00;;;25.84;67.49
9740;BME280;4909;42.680;26.324;2022-08-21T02:02:02;97847.03;;;25.94;67.17
9740;BME280;4909;42.680;26.324;2022-08-21T02:04:29;97850.13;;;26.06;66.83
9740;BME280;4909;42.680;26.324;2022-08-21T02:06:57;97849.69;;;26.17;66.49
9740;BME280;4909;42.680;26.324;2022-08-21T02:09:23;97836.09;;;25.80;67.22
9740;BME280;4909;42.680;26.324;2022-08-21T02:11:50;97845.78;;;25.60;68.79
9740;BME280;4909;42.680;26.324;2022-08-21T02:14:19;97854.75;;;25.83;67.74
9740;BME280;4909;42.680;26.324;2022-08-21T02:16:46;97838.34;;;25.91;67.85
9740;BME280;4909;42.680;26.324;2022-08-21T02:19:15;97850.19;;;25.61;68.12
9740;BME280;4909;42.680;26.324;2022-08-21T02:21:41;97847.09;;;25.64;67.52
9740;BME280;4909;42.680;26.324;2022-08-21T02:24:09;97845.91;;;25.35;67.42
9740;BME280;4909;42.680;26.324;2022-08-21T02:26:37;97842.66;;;25.17;68.45
9740;BME280;4909;42.680;26.324;2022-08-21T02:29:05;97839.56;;;25.43;69.01
9740;BME280;4909;42.680;26.324;2022-08-21T02:31:33;97838.78;;;25.65;68.16
9740;BME280;4909;42.680;26.324;2022-08-21T02:34:00;97831.84;;;25.77;67.04
9740;BME280;4909;42.680;26.324;2022-08-21T02:36:27;97833.00;;;25.83;66.93
9740;BME280;4909;42.680;26.324;2022-08-21T02:38:54;97831.25;;;25.90;65.79
9740;BME280;4909;42.680;26.324;2022-08-21T02:41:22;97822.94;;;25.69;66.33
9740;BME280;4909;42.680;26.324;2022-08-21T02:43:49;97834.88;;;25.82;65.96
9740;BME280;4909;42.680;26.324;2022-08-21T02:46:18;97832.91;;;25.91;65.89
9740;BME280;4909;42.680;26.324;2022-08-21T02:48:47;97842.63;;;26.08;65.99
9740;BME280;4909;42.680;26.324;2022-08-21T02:51:18;97848.81;;;26.17;65.47
9740;BME280;4909;42.680;26.324;2022-08-21T02:53:46;97842.31;;;25.88;65.47
9740;BME280;4909;42.680;26.324;2022-08-21T02:56:15;97824.00;;;25.82;66.31
9740;BME280;4909;42.680;26.324;2022-08-21T02:58:44;97847.78;;;26.03;65.75
9740;BME280;4909;42.680;26.324;2022-08-21T03:01:13;97816.81;;;25.89;65.89
9740;BME280;4909;42.680;26.324;2022-08-21T03:03:41;97838.63;;;25.81;66.55
9740;BME280;4909;42.680;26.324;2022-08-21T03:06:12;97840.31;;;25.82;66.78
9740;BME280;4909;42.680;26.324;2022-08-21T03:08:39;97816.13;;;25.87;66.69
9740;BME280;4909;42.680;26.324;2022-08-21T03:11:07;97835.66;;;26.06;66.65
9740;BME280;4909;42.680;26.324;2022-08-21T03:13:34;97843.28;;;26.10;66.34
9740;BME280;4909;42.680;26.324;2022-08-21T03:16:01;97836.91;;;25.80;67.22
9740;BME280;4909;42.680;26.324;2022-08-21T03:18:27;97836.44;;;25.77;67.50
9740;BME280;4909;42.680;26.324;2022-08-21T03:20:54;97833.44;;;25.94;67.12
9740;BME280;4909;42.680;26.324;2022-08-21T03:23:22;97829.94;;;26.01;67.05
9740;BME280;4909;42.680;26.324;2022-08-21T03:25:49;97832.59;;;26.09;66.61
9740;BME280;4909;42.680;26.324;2022-08-21T03:28:19;97821.03;;;25.92;67.07
9740;BME280;4909;42.680;26.324;2022-08-21T03:30:49;97836.91;;;26.03;66.95
9740;BME280;4909;42.680;26.324;2022-08-21T03:33:16;97839.91;;;26.08;67.04
9740;BME280;4909;42.680;26.324;2022-08-21T03:35:45;97844.69;;;26.06;66.88
9740;BME280;4909;42.680;26.324;2022-08-21T03:38:14;97852.00;;;26.06;67.43
9740;BME280;4909;42.680;26.324;2022-08-21T03:40:43;97852.84;;;26.06;67.62
9740;BME280;4909;42.680;26.324;2022-08-21T03:43:10;97845.91;;;26.04;67.92
9740;BME280;4909;42.680;26.324;2022-08-21T03:45:37;97839.31;;;25.98;68.07
9740;BME280;4909;42.680;26.324;2022-08-21T03:48:05;97840.81;;;26.01;68.24
9740;BME280;4909;42.680;26.324;2022-08-21T03:50:36;97848.50;;;25.97;68.52
9740;BME280;4909;42.680;26.324;2022-08-21T03:53:03;97846.34;;;25.92;68.25
9740;BME280;4909;42.680;26.324;2022-08-21T03:55:30;97853.47;;;25.93;68.22
9740;BME280;4909;42.680;26.324;2022-08-21T03:57:58;97854.22;;;25.65;68.96
9740;BME280;4909;42.680;26.324;2022-08-21T04:00:25;97848.41;;;25.22;70.92
9740;BME280;4909;42.680;26.324;2022-08-21T04:02:52;97854.47;;;24.93;72.46
9740;BME280;4909;42.680;26.324;2022-08-21T04:05:20;97846.06;;;25.11;72.51
9740;BME280;4909;42.680;26.324;2022-08-21T04:07:55;97835.22;;;25.34;71.72
9740;BME280;4909;42.680;26.324;2022-08-21T04:10:22;97858.34;;;25.61;70.91
9740;BME280;4909;42.680;26.324;2022-08-21T04:12:51;97850.88;;;25.77;70.46
9740;BME280;4909;42.680;26.324;2022-08-21T04:15:20;97858.91;;;25.71;69.82
9740;BME280;4909;42.680;26.324;2022-08-21T04:17:47;97868.13;;;25.70;70.03
9740;BME280;4909;42.680;26.324;2022-08-21T04:20:15;97866.09;;;25.86;69.62
9740;BME280;4909;42.680;26.324;2022-08-21T04:22:42;97874.28;;;26.01;69.01
9740;BME280;4909;42.680;26.324;2022-08-21T04:25:09;97884.06;;;26.10;69.07
9740;BME280;4909;42.680;26.324;2022-08-21T04:27:36;97893.59;;;25.91;69.54
9740;BME280;4909;42.680;26.324;2022-08-21T04:30:05;97908.75;;;25.86;70.40
9740;BME280;4909;42.680;26.324;2022-08-21T04:32:33;97914.78;;;25.96;69.70
9740;BME280;4909;42.680;26.324;2022-08-21T04:35:02;97916.31;;;25.99;70.09
9740;BME280;4909;42.680;26.324;2022-08-21T04:37:30;97928.69;;;25.78;71.09
9740;BME280;4909;42.680;26.324;2022-08-21T04:39:57;97921.31;;;25.64;72.37
9740;BME280;4909;42.680;26.324;2022-08-21T04:42:25;97929.22;;;25.43;74.26
9740;BME280;4909;42.680;26.324;2022-08-21T04:44:53;97910.84;;;25.22;75.01
9740;BME280;4909;42.680;26.324;2022-08-21T04:47:20;97934.66;;;25.43;75.57
9740;BME280;4909;42.680;26.324;2022-08-21T04:49:50;97940.41;;;25.48;76.24
9740;BME280;4909;42.680;26.324;2022-08-21T04:52:20;97946.97;;;25.62;76.33
9740;BME280;4909;42.680;26.324;2022-08-21T04:54:48;97952.41;;;25.62;76.83
9740;BME280;4909;42.680;26.324;2022-08-21T04:57:17;97929.91;;;25.45;77.46
9740;BME280;4909;42.680;26.324;2022-08-21T04:59:46;97950.56;;;25.54;77.99
9740;BME280;4909;42.680;26.324;2022-08-21T05:02:14;97951.28;;;25.56;78.49
9740;BME280;4909;42.680;26.324;2022-08-21T05:04:45;97946.25;;;25.68;78.88
9740;BME280;4909;42.680;26.324;2022-08-21T05:07:17;97944.28;;;25.84;78.03
9740;BME280;4909;42.680;26.324;2022-08-21T05:09:45;97943.91;;;25.87;78.47
9740;BME280;4909;42.680;26.324;2022-08-21T05:12:12;97944.22;;;25.92;78.99
9740;BME280;4909;42.680;26.324;2022-08-21T05:14:39;97945.31;;;26.06;78.06
9740;BME280;4909;42.680;26.324;2022-08-21T05:17:07;97935.91;;;25.94;77.93
9740;BME280;4909;42.680;26.324;2022-08-21T05:19:34;97930.94;;;25.98;77.81
9740;BME280;4909;42.680;26.324;2022-08-21T05:22:02;97929.53;;;26.02;77.89
9740;BME280;4909;42.680;26.324;2022-08-21T05:24:30;97928.88;;;26.00;77.80
9740;BME280;4909;42.680;26.324;2022-08-21T05:26:57;97928.81;;;26.08;77.63
9740;BME280;4909;42.680;26.324;2022-08-21T05:29:24;97921.22;;;26.41;76.54
9740;BME280;4909;42.680;26.324;2022-08-21T05:31:51;97929.69;;;26.60;75.73
9740;BME280;4909;42.680;26.324;2022-08-21T05:34:20;97927.44;;;26.49;76.46
9740;BME280;4909;42.680;26.324;2022-08-21T05:36:48;97930.38;;;26.62;76.13
9740;BME280;4909;42.680;26.324;2022-08-21T05:39:15;97926.03;;;26.68;75.14
9740;BME280;4909;42.680;26.324;2022-08-21T05:41:44;97929.53;;;26.76;75.70
9740;BME280;4909;42.680;26.324;2022-08-21T05:44:10;97928.19;;;26.58;75.99
9740;BME280;4909;42.680;26.324;2022-08-21T05:46:38;97936.34;;;26.43;76.19
9740;BME280;4909;42.680;26.324;2022-08-21T05:49:05;97931.75;;;26.21;77.17
9740;BME280;4909;42.680;26.324;2022-08-21T05:51:31;97935.25;;;26.29;76.65
9740;BME280;4909;42.680;26.324;2022-08-21T05:53:58;97938.66;;;26.31;77.01
9740;BME280;4909;42.680;26.324;2022-08-21T05:56:25;97942.88;;;26.34;76.65
9740;BME280;4909;42.680;26.324;2022-08-21T05:58:53;97945.28;;;26.52;75.43
9740;BME280;4909;42.680;26.324;2022-08-21T06:01:21;97942.94;;;26.63;75.40
9740;BME280;4909;42.680;26.324;2022-08-21T06:03:47;97947.22;;;26.58;75.13
9740;BME280;4909;42.680;26.324;2022-08-21T06:06:14;97955.03;;;26.46;75.84
9740;BME280;4909;42.680;26.324;2022-08-21T06:08:42;97949.09;;;26.43;76.32
9740;BME280;4909;42.680;26.324;2022-08-21T06:11:09;97948.88;;;26.29;75.92
9740;BME280;4909;42.680;26.324;2022-08-21T06:13:37;97943.00;;;26.41;75.97
9740;BME280;4909;42.680;26.324;2022-08-21T06:16:08;97948.75;;;26.60;74.53
9740;BME280;4909;42.680;26.324;2022-08-21T06:18:35;97949.19;;;26.87;73.61
9740;BME280;4909;42.680;26.324;2022-08-21T06:21:03;97934.63;;;26.94;72.66
9740;BME280;4909;42.680;26.324;2022-08-21T06:23:30;97954.59;;;27.31;71.42
9740;BME280;4909;42.680;26.324;2022-08-21T06:25:57;97951.88;;;27.31;71.39
9740;BME280;4909;42.680;26.324;2022-08-21T06:28:24;97943.91;;;27.29;70.90
9740;BME280;4909;42.680;26.324;2022-08-21T06:30:51;97948.31;;;27.45;70.27
9740;BME280;4909;42.680;26.324;2022-08-21T06:33:20;97950.44;;;27.64;70.14
9740;BME280;4909;42.680;26.324;2022-08-21T06:35:46;97953.00;;;27.87;69.29
9740;BME280;4909;42.680;26.324;2022-08-21T06:38:13;97950.84;;;28.03;67.88
9740;BME280;4909;42.680;26.324;2022-08-21T06:40:41;97953.09;;;28.15;66.85
9740;BME280;4909;42.680;26.324;2022-08-21T06:43:09;97962.22;;;28.28;66.06
9740;BME280;4909;42.680;26.324;2022-08-21T06:45:37;97966.00;;;28.27;66.81
9740;BME280;4909;42.680;26.324;2022-08-21T06:48:05;97957.25;;;28.32;65.14
9740;BME280;4909;42.680;26.324;2022-08-21T06:50:34;97955.59;;;28.37;64.58
9740;BME280;4909;42.680;26.324;2022-08-21T06:53:03;97954.13;;;28.35;64.88
9740;BME280;4909;42.680;26.324;2022-08-21T06:55:30;97952.41;;;28.34;64.92
9740;BME280;4909;42.680;26.324;2022-08-21T06:57:57;97954.66;;;28.51;63.80
9740;BME280;4909;42.680;26.324;2022-08-21T07:00:25;97916.69;;;28.57;63.36
9740;BME280;4909;42.680;26.324;2022-08-21T07:02:52;97941.66;;;28.75;63.19
9740;BME280;4909;42.680;26.324;2022-08-21T07:05:19;97934.00;;;28.98;62.67
9740;BME280;4909;42.680;26.324;2022-08-21T07:07:47;97931.78;;;29.15;61.00
9740;BME280;4909;42.680;26.324;2022-08-21T07:10:14;97908.16;;;29.01;61.59
9740;BME280;4909;42.680;26.324;2022-08-21T07:12:41;97900.56;;;28.89;60.37
9740;BME280;4909;42.680;26.324;2022-08-21T07:15:09;97928.59;;;29.05;60.66
9740;BME280;4909;42.680;26.324;2022-08-21T07:17:36;97892.03;;;28.71;61.16
9740;BME280;4909;42.680;26.324;2022-08-21T07:20:04;97900.78;;;28.67;61.44
9740;BME280;4909;42.680;26.324;2022-08-21T07:22:32;97920.19;;;28.72;61.71
9740;BME280;4909;42.680;26.324;2022-08-21T07:25:00;97916.13;;;28.95;61.73
9740;BME280;4909;42.680;26.324;2022-08-21T07:27:27;97916.94;;;28.89;60.29
9740;BME280;4909;42.680;26.324;2022-08-21T07:29:54;97905.00;;;28.97;60.98
9740;BME280;4909;42.680;26.324;2022-08-21T07:32:21;97903.63;;;29.14;58.83
9740;BME280;4909;42.680;26.324;2022-08-21T07:34:48;97901.41;;;29.31;59.17
9740;BME280;4909;42.680;26.324;2022-08-21T07:37:15;97904.06;;;29.24;59.00
9740;BME280;4909;42.680;26.324;2022-08-21T07:39:41;97905.53;;;29.14;57.80
9740;BME280;4909;42.680;26.324;2022-08-21T07:42:10;97900.66;;;29.09;58.94
9740;BME280;4909;42.680;26.324;2022-08-21T07:44:37;97896.94;;;29.30;59.01
9740;BME280;4909;42.680;26.324;2022-08-21T07:47:04;97888.84;;;29.50;58.19
9740;BME280;4909;42.680;26.324;2022-08-21T07:49:31;97891.44;;;29.71;57.23
9740;BME280;4909;42.680;26.324;2022-08-21T07:51:58;97890.16;;;29.60;56.25
9740;BME280;4909;42.680;26.324;2022-08-21T07:54:25;97888.50;;;29.72;55.87
9740;BME280;4909;42.680;26.324;2022-08-21T07:56:52;97885.38;;;29.89;54.61
9740;BME280;4909;42.680;26.324;2022-08-21T07:59:20;97878.66;;;30.17;54.18
9740;BME280;4909;42.680;26.324;2022-08-21T08:01:47;97883.31;;;30.04;55.57
9740;BME280;4909;42.680;26.324;2022-08-21T08:04:14;97876.97;;;30.43;53.89
9740;BME280;4909;42.680;26.324;2022-08-21T08:06:41;97872.75;;;30.67;52.21
9740;BME280;4909;42.680;26.324;2022-08-21T08:09:08;97869.63;;;30.10;54.39
9740;BME280;4909;42.680;26.324;2022-08-21T08:11:35;97876.38;;;30.01;54.26
9740;BME280;4909;42.680;26.324;2022-08-21T08:14:04;97867.72;;;30.24;53.66
9740;BME280;4909;42.680;26.324;2022-08-21T08:16:32;97866.22;;;30.61;52.34
9740;BME280;4909;42.680;26.324;2022-08-21T08:18:59;97868.22;;;30.98;51.53
9740;BME280;4909;42.680;26.324;2022-08-21T08:21:26;97857.97;;;30.81;51.50
9740;BME280;4909;42.680;26.324;2022-08-21T08:23:53;97863.63;;;31.05;49.90
9740;BME280;4909;42.680;26.324;2022-08-21T08:26:20;97863.31;;;31.27;50.64
9740;BME280;4909;42.680;26.324;2022-08-21T08:28:47;97859.19;;;31.49;50.07
9740;BME280;4909;42.680;26.324;2022-08-21T08:31:14;97858.88;;;31.70;49.12
9740;BME280;4909;42.680;26.324;2022-08-21T08:33:42;97859.63;;;31.84;48.75
9740;BME280;4909;42.680;26.324;2022-08-21T08:36:13;97851.91;;;31.74;48.36
9740;BME280;4909;42.680;26.324;2022-08-21T08:38:40;97854.00;;;31.72;48.72
9740;BME280;4909;42.680;26.324;2022-08-21T08:41:10;97850.16;;;31.80;47.73
9740;BME280;4909;42.680;26.324;2022-08-21T08:43:39;97847.19;;;30.92;49.12
9740;BME280;4909;42.680;26.324;2022-08-21T08:46:12;97847.75;;;31.14;50.92
9740;BME280;4909;42.680;26.324;2022-08-21T08:48:47;97854.34;;;31.51;49.48
9740;BME280;4909;42.680;26.324;2022-08-21T08:51:21;97839.03;;;31.75;47.65
9740;BME280;4909;42.680;26.324;2022-08-21T08:53:52;97840.84;;;31.81;48.15
9740;BME280;4909;42.680;26.324;2022-08-21T08:56:29;97838.00;;;31.69;47.55
9740;BME280;4909;42.680;26.324;2022-08-21T08:58:59;97826.41;;;31.67;46.36
9740;BME280;4909;42.680;26.324;2022-08-21T09:01:27;97826.06;;;31.50;47.81
9740;BME280;4909;42.680;26.324;2022-08-21T09:03:56;97787.88;;;31.18;48.04
9740;BME280;4909;42.680;26.324;2022-08-21T09:06:42;97813.88;;;31.02;48.56
9740;BME280;4909;42.680;26.324;2022-08-21T09:09:32;97812.19;;;31.08;48.37
9740;BME280;4909;42.680;26.324;2022-08-21T09:12:04;97815.50;;;31.16;48.46
9740;BME280;4909;42.680;26.324;2022-08-21T09:14:45;97817.41;;;31.47;48.47
9740;BME280;4909;42.680;26.324;2022-08-21T09:17:23;97817.84;;;31.82;46.02
9740;BME280;4909;42.680;26.324;2022-08-21T09:20:07;97813.09;;;31.96;45.44
9740;BME280;4909;42.680;26.324;2022-08-21T09:22:42;97801.50;;;32.43;45.13
9740;BME280;4909;42.680;26.324;2022-08-21T09:25:18;97797.47;;;32.64;44.43
9740;BME280;4909;42.680;26.324;2022-08-21T09:27:47;97798.22;;;32.53;44.20
9740;BME280;4909;42.680;26.324;2022-08-21T09:30:14;97786.63;;;32.51;45.08
9740;BME280;4909;42.680;26.324;2022-08-21T09:32:41;97793.00;;;32.45;43.66
9740;BME280;4909;42.680;26.324;2022-08-21T09:35:13;97779.84;;;31.85;45.31
9740;BME280;4909;42.680;26.324;2022-08-21T09:37:51;97785.03;;;31.69;46.43
9740;BME280;4909;42.680;26.324;2022-08-21T09:40:31;97782.09;;;31.64;46.26
9740;BME280;4909;42.680;26.324;2022-08-21T09:43:01;97778.69;;;31.68;46.27
9740;BME280;4909;42.680;26.324;2022-08-21T09:45:29;97777.09;;;31.61;45.66
9740;BME280;4909;42.680;26.324;2022-08-21T09:48:08;97784.03;;;31.57;46.02
9740;BME280;4909;42.680;26.324;2022-08-21T09:50:37;97781.47;;;31.62;45.98
9740;BME280;4909;42.680;26.324;2022-08-21T09:53:13;97777.75;;;31.81;45.88
9740;BME280;4909;42.680;26.324;2022-08-21T09:55:48;97784.69;;;31.83;45.32
9740;BME280;4909;42.680;26.324;2022-08-21T09:58:35;97765.75;;;32.00;46.07
9740;BME280;4909;42.680;26.324;2022-08-21T10:01:05;97773.22;;;31.68;45.28
9740;BME280;4909;42.680;26.324;2022-08-21T10:03:32;97762.28;;;31.62;45.45
9740;BME280;4909;42.680;26.324;2022-08-21T10:06:03;97762.72;;;31.52;46.01
9740;BME280;4909;42.680;26.324;2022-08-21T10:08:35;97765.19;;;31.67;45.39
9740;BME280;4909;42.680;26.324;2022-08-21T10:11:04;97762.38;;;31.80;45.39
9740;BME280;4909;42.680;26.324;2022-08-21T10:13:47;97769.34;;;31.76;44.96
9740;BME280;4909;42.680;26.324;2022-08-21T10:16:27;97764.47;;;31.78;44.52
9740;BME280;4909;42.680;26.324;2022-08-21T10:19:07;97761.81;;;31.33;45.11
9740;BME280;4909;42.680;26.324;2022-08-21T10:21:43;97763.53;;;31.28;45.59
9740;BME280;4909;42.680;26.324;2022-08-21T10:24:21;97762.66;;;31.34;44.64
9740;BME280;4909;42.680;26.324;2022-08-21T10:26:57;97762.00;;;31.38;45.69
9740;BME280;4909;42.680;26.324;2022-08-21T10:29:39;97750.63;;;31.66;44.73
9740;BME280;4909;42.680;26.324;2022-08-21T10:32:26;97746.44;;;31.64;44.67
9740;BME280;4909;42.680;26.324;2022-08-21T10:35:00;97750.72;;;31.84;43.92
9740;BME280;4909;42.680;26.324;2022-08-21T10:37:46;97745.72;;;31.75;44.19
9740;BME280;4909;42.680;26.324;2022-08-21T10:40:22;97748.56;;;31.30;45.11
9740;BME280;4909;42.680;26.324;2022-08-21T10:43:00;97752.81;;;31.26;44.90
9740;BME280;4909;42.680;26.324;2022-08-21T10:45:42;97745.72;;;31.12;44.87
9740;BME280;4909;42.680;26.324;2022-08-21T10:48:29;97742.97;;;31.43;45.76
9740;BME280;4909;42.680;26.324;2022-08-21T10:51:06;97747.97;;;31.53;45.47
9740;BME280;4909;42.680;26.324;2022-08-21T10:53:45;97742.56;;;31.46;45.82
9740;BME280;4909;42.680;26.324;2022-08-21T10:56:17;97744.59;;;31.26;46.79
9740;BME280;4909;42.680;26.324;2022-08-21T10:58:51;97738.81;;;31.03;46.45
9740;BME280;4909;42.680;26.324;2022-08-21T11:01:27;97739.41;;;31.12;46.90
9740;BME280;4909;42.680;26.324;2022-08-21T11:04:07;97731.47;;;30.90;46.23
9740;BME280;4909;42.680;26.324;2022-08-21T11:06:37;97726.53;;;30.68;47.04
9740;BME280;4909;42.680;26.324;2022-08-21T11:09:12;97720.56;;;30.84;47.58
9740;BME280;4909;42.680;26.324;2022-08-21T11:11:42;97715.47;;;30.87;47.96
9740;BME280;4909;42.680;26.324;2022-08-21T11:14:21;97712.25;;;30.97;47.19
9740;BME280;4909;42.680;26.324;2022-08-21T11:16:57;97712.88;;;30.99;46.37
9740;BME280;4909;42.680;26.324;2022-08-21T11:19:30;97706.69;;;30.72;47.29
9740;BME280;4909;42.680;26.324;2022-08-21T11:22:06;97702.91;;;30.73;47.90
9740;BME280;4909;42.680;26.324;2022-08-21T11:24:41;97700.31;;;30.85;48.12
9740;BME280;4909;42.680;26.324;2022-08-21T11:27:18;97698.16;;;30.93;48.22
9740;BME280;4909;42.680;26.324;2022-08-21T11:29:50;97697.16;;;30.81;48.08
9740;BME280;4909;42.680;26.324;2022-08-21T11:32:29;97693.50;;;30.94;46.89
9740;BME280;4909;42.680;26.324;2022-08-21T11:35:03;97696.47;;;30.92;45.48
9740;BME280;4909;42.680;26.324;2022-08-21T11:37:45;97691.00;;;30.92;45.76
9740;BME280;4909;42.680;26.324;2022-08-21T11:40:35;97671.25;;;30.84;46.81
9740;BME280;4909;42.680;26.324;2022-08-21T11:43:10;97678.19;;;30.80;47.60
9740;BME280;4909;42.680;26.324;2022-08-21T11:45:44;97676.06;;;30.88;46.51
9740;BME280;4909;42.680;26.324;2022-08-21T11:48:20;97659.69;;;30.75;46.83
9740;BME280;4909;42.680;26.324;2022-08-21T11:50:51;97667.13;;;30.68;47.48
9740;BME280;4909;42.680;26.324;2022-08-21T11:53:23;97666.09;;;30.62;47.86
9740;BME280;4909;42.680;26.324;2022-08-21T11:55:56;97660.78;;;30.68;47.28
9740;BME280;4909;42.680;26.324;2022-08-21T11:58:30;97661.72;;;30.48;47.98
9740;BME280;4909;42.680;26.324;2022-08-21T12:01:00;97669.94;;;30.42;47.96
9740;BME280;4909;42.680;26.324;2022-08-21T12:03:32;97664.31;;;30.30;48.35
9740;BME280;4909;42.680;26.324;2022-08-21T12:06:01;97657.53;;;30.33;47.97
9740;BME280;4909;42.680;26.324;2022-08-21T12:08:32;97663.00;;;30.39;48.41
9740;BME280;4909;42.680;26.324;2022-08-21T12:11:04;97635.25;;;30.29;47.45
9740;BME280;4909;42.680;26.324;2022-08-21T12:13:34;97654.97;;;30.44;47.75
9740;BME280;4909;42.680;26.324;2022-08-21T12:16:06;97655.81;;;30.45;47.88
9740;BME280;4909;42.680;26.324;2022-08-21T12:18:33;97650.81;;;30.35;47.54
9740;BME280;4909;42.680;26.324;2022-08-21T12:21:16;97621.38;;;30.17;47.82
9740;BME280;4909;42.680;26.324;2022-08-21T12:23:47;97642.56;;;30.48;47.53
9740;BME280;4909;42.680;26.324;2022-08-21T12:26:26;97645.31;;;30.48;47.19
9740;BME280;4909;42.680;26.324;2022-08-21T12:29:07;97648.66;;;30.44;46.56
9740;BME280;4909;42.680;26.324;2022-08-21T12:31:48;97643.59;;;30.41;47.52
9740;BME280;4909;42.680;26.324;2022-08-21T12:34:16;97642.78;;;30.40;47.03
9740;BME280;4909;42.680;26.324;2022-08-21T12:36:45;97650.78;;;30.48;47.36
9740;BME280;4909;42.680;26.324;2022-08-21T12:39:21;97650.31;;;30.58;46.58
9740;BME280;4909;42.680;26.324;2022-08-21T12:41:55;97646.94;;;30.56;46.17
9740;BME280;4909;42.680;26.324;2022-08-21T12:44:29;97649.66;;;30.56;46.23
9740;BME280;4909;42.680;26.324;2022-08-21T12:47:03;97650.69;;;30.61;46.76
9740;BME280;4909;42.680;26.324;2022-08-21T12:49:34;97645.03;;;30.56;46.77
9740;BME280;4909;42.680;26.324;2022-08-21T12:52:07;97647.31;;;30.66;46.21
9740;BME280;4909;42.680;26.324;2022-08-21T12:54:39;97648.31;;;30.72;49.06
9740;BME280;4909;42.680;26.324;2022-08-21T12:57:09;97647.59;;;30.51;50.12
9740;BME280;4909;42.680;26.324;2022-08-21T12:59:44;97657.50;;;30.46;51.38
9740;BME280;4909;42.680;26.324;2022-08-21T13:02:16;97633.19;;;30.18;52.35
9740;BME280;4909;42.680;26.324;2022-08-21T13:04:46;97647.50;;;30.20;53.19
9740;BME280;4909;42.680;26.324;2022-08-21T13:07:19;97652.97;;;30.20;53.19
9740;BME280;4909;42.680;26.324;2022-08-21T13:09:51;97652.97;;;30.20;53.40
9740;BME280;4909;42.680;26.324;2022-08-21T13:12:21;97649.84;;;30.10;54.06
9740;BME280;4909;42.680;26.324;2022-08-21T13:14:51;97650.25;;;30.07;54.37
9740;BME280;4909;42.680;26.324;2022-08-21T13:17:20;97653.47;;;29.91;55.59
9740;BME280;4909;42.680;26.324;2022-08-21T13:19:58;97654.09;;;29.86;55.52
9740;BME280;4909;42.680;26.324;2022-08-21T13:22:26;97629.28;;;29.74;55.04
9740;BME280;4909;42.680;26.324;2022-08-21T13:24:53;97643.53;;;30.03;54.55